createdAt,value
2018-04-16T00:00:35.717Z,79.95
2018-04-16T00:01:35.690Z,79.46
2018-04-16T00:02:35.685Z,78.9
2018-04-16T00:03:35.691Z,78.48
2018-04-16T00:04:35.681Z,78.61
2018-04-16T00:05:35.691Z,78.52
2018-04-16T00:06:35.682Z,79.03
2018-04-16T00:07:35.674Z,79.48
2018-04-16T00:09:35.672Z,79.12
2018-04-16T00:10:35.728Z,79.55
2018-04-16T00:11:35.699Z,78.59
2018-04-16T00:12:35.675Z,78.64
2018-04-16T00:13:35.696Z,79.02
2018-04-16T00:14:35.696Z,78.96
2018-04-16T00:15:35.692Z,78.19
2018-04-16T00:16:35.659Z,78.6
2018-04-16T00:17:35.661Z,78.51
2018-04-16T00:18:35.673Z,79.06
2018-04-16T00:19:35.661Z,78.24
2018-04-16T00:20:35.667Z,78.9
2018-04-16T00:21:35.683Z,78.38
2018-04-16T00:22:35.676Z,79.53
2018-04-16T00:23:35.717Z,80.28
2018-04-16T00:24:35.708Z,79.28
2018-04-16T00:25:35.657Z,79.63
2018-04-16T00:26:35.653Z,80.12
2018-04-16T00:27:35.675Z,78.69
2018-04-16T00:28:35.644Z,78.94
2018-04-16T00:29:35.676Z,79.54
2018-04-16T00:30:35.706Z,79.23
2018-04-16T00:31:35.640Z,79.86
2018-04-16T00:32:36.128Z,80.34
2018-04-16T00:33:35.638Z,80.19
2018-04-16T00:34:35.668Z,80.24
2018-04-16T00:35:35.669Z,80.66
2018-04-16T00:36:35.679Z,79.3
2018-04-16T00:37:35.648Z,79.3
2018-04-16T00:38:35.636Z,80.36
2018-04-16T00:39:35.635Z,80.56
2018-04-16T00:40:35.644Z,81.01
2018-04-16T00:41:35.630Z,80.33
2018-04-16T00:42:35.656Z,81.11
2018-04-16T00:43:35.629Z,79.73
2018-04-16T00:44:35.737Z,79.99
2018-04-16T00:45:35.630Z,80.1
2018-04-16T00:46:35.712Z,80.08
2018-04-16T00:47:35.655Z,79.67
2018-04-16T00:48:35.618Z,79.66
2018-04-16T00:49:35.636Z,80.01
2018-04-16T00:50:35.641Z,79.57
2018-04-16T00:51:35.637Z,79.48
2018-04-16T00:52:35.731Z,79.27
2018-04-16T00:53:35.618Z,79.09
2018-04-16T00:54:35.648Z,78.29
2018-04-16T00:55:35.611Z,77.83
2018-04-16T00:56:35.607Z,77.95
2018-04-16T00:57:35.775Z,78.14
2018-04-16T00:58:35.620Z,77.97
2018-04-16T00:59:35.601Z,78.28
2018-04-16T01:00:35.599Z,79.88
2018-04-16T01:01:35.607Z,79.81
2018-04-16T01:02:35.630Z,80.23
2018-04-16T01:04:35.597Z,80.6
2018-04-16T01:05:35.594Z,80.93
2018-04-16T01:06:35.604Z,80.83
2018-04-16T01:07:35.583Z,79.88
2018-04-16T01:08:35.613Z,80.5
2018-04-16T01:09:35.592Z,79.58
2018-04-16T01:10:35.589Z,79.03
2018-04-16T01:11:35.591Z,79.12
2018-04-16T01:12:35.588Z,79.88
2018-04-16T01:13:35.614Z,79.99
2018-04-16T01:14:35.605Z,79.21
2018-04-16T01:15:35.585Z,79.23
2018-04-16T01:16:35.587Z,78.72
2018-04-16T01:17:35.712Z,78.66
2018-04-16T01:18:35.598Z,78.5
2018-04-16T01:19:35.581Z,78.24
2018-04-16T01:20:35.578Z,78.19
2018-04-16T01:21:35.571Z,79.16
2018-04-16T01:22:35.584Z,78.57
2018-04-16T01:23:35.569Z,79.71
2018-04-16T01:24:35.583Z,79.08
2018-04-16T01:25:35.566Z,78.93
2018-04-16T01:26:35.581Z,78.83
2018-04-16T01:27:35.570Z,78.41
2018-04-16T01:28:35.569Z,79.87
2018-04-16T01:29:35.727Z,79.27
2018-04-16T01:30:35.594Z,79.99
2018-04-16T01:31:35.569Z,80.01
2018-04-16T01:32:35.692Z,79.34
2018-04-16T01:33:35.561Z,79.37
2018-04-16T01:34:35.602Z,79.03
2018-04-16T01:35:35.656Z,79.4
2018-04-16T01:36:35.557Z,78.49
2018-04-16T01:37:35.605Z,78.13
2018-04-16T01:38:35.561Z,78.07
2018-04-16T01:39:35.558Z,78.51
2018-04-16T01:40:35.575Z,79.08
2018-04-16T01:41:35.563Z,78.92
2018-04-16T01:42:35.582Z,78.65
2018-04-16T01:43:35.551Z,78.29
2018-04-16T01:44:35.569Z,78.12
2018-04-16T01:45:35.551Z,78.12
2018-04-16T01:46:35.559Z,78.44
2018-04-16T01:47:35.549Z,79.17
2018-04-16T01:48:35.568Z,79.44
2018-04-16T01:49:35.726Z,78.27
2018-04-16T01:50:35.572Z,78.18
2018-04-16T01:51:35.550Z,78.25
2018-04-16T01:52:35.538Z,78.06
2018-04-16T01:53:35.535Z,77.81
2018-04-16T01:54:35.569Z,78.89
2018-04-16T01:55:35.554Z,79.13
2018-04-16T01:56:35.547Z,78.64
2018-04-16T01:57:35.621Z,79.07
2018-04-16T01:58:35.538Z,78.95
2018-04-16T01:59:35.542Z,79.25
2018-04-16T02:00:35.533Z,79.16
2018-04-16T02:01:35.608Z,78.83
2018-04-16T02:02:35.545Z,78.45
2018-04-16T02:03:35.531Z,78.62
2018-04-16T02:04:35.528Z,78.38
2018-04-16T02:05:35.530Z,78.79
2018-04-16T02:06:35.526Z,78.85
2018-04-16T02:07:35.519Z,80.96
2018-04-16T02:08:35.512Z,80.14
2018-04-16T02:09:35.511Z,79.38
2018-04-16T02:10:35.547Z,78.66
2018-04-16T02:11:35.557Z,79.93
2018-04-16T02:12:35.512Z,79.31
2018-04-16T02:13:35.515Z,78.88
2018-04-16T02:14:35.531Z,78.9
2018-04-16T02:15:35.538Z,79.06
2018-04-16T02:16:35.556Z,78.69
2018-04-16T02:17:35.510Z,78.65
2018-04-16T02:18:35.494Z,78.57
2018-04-16T02:19:35.520Z,78.7
2018-04-16T02:20:35.494Z,78.44
2018-04-16T02:21:35.485Z,78.5
2018-04-16T02:22:35.542Z,78.48
2018-04-16T02:23:35.563Z,78.43
2018-04-16T02:24:35.486Z,78.4
2018-04-16T02:25:35.513Z,78.21
2018-04-16T02:26:35.510Z,78.2
2018-04-16T02:27:35.492Z,78.05
2018-04-16T02:28:35.507Z,77.75
2018-04-16T02:29:35.483Z,77.89
2018-04-16T02:30:35.562Z,78.33
2018-04-16T02:31:35.544Z,77.79
2018-04-16T02:32:35.494Z,77.75
2018-04-16T02:33:35.487Z,78.2
2018-04-16T02:34:35.478Z,78.39
2018-04-16T02:35:35.643Z,78.09
2018-04-16T02:36:35.512Z,78.37
2018-04-16T02:37:35.480Z,78.22
2018-04-16T02:38:35.500Z,78.8
2018-04-16T02:39:35.488Z,78.12
2018-04-16T02:40:35.524Z,78.68
2018-04-16T02:41:35.475Z,78.8
2018-04-16T02:42:35.471Z,78.58
2018-04-16T02:43:35.482Z,78.71
2018-04-16T02:44:35.502Z,78.98
2018-04-16T02:45:35.448Z,78.67
2018-04-16T02:46:35.583Z,79.41
2018-04-16T02:47:35.461Z,78.85
2018-04-16T02:48:35.469Z,78.67
2018-04-16T02:49:35.475Z,79.23
2018-04-16T02:50:35.485Z,78.42
2018-04-16T02:51:35.461Z,78.41
2018-04-16T02:52:35.445Z,79.39
2018-04-16T02:53:35.442Z,79.29
2018-04-16T02:54:35.451Z,79.73
2018-04-16T02:55:35.474Z,79.74
2018-04-16T02:56:35.461Z,78.95
2018-04-16T02:57:35.448Z,78.57
2018-04-16T02:58:35.440Z,78.79
2018-04-16T02:59:35.483Z,79.18
2018-04-16T03:00:35.468Z,79.72
2018-04-16T03:01:35.458Z,79.45
2018-04-16T03:02:35.464Z,79.4
2018-04-16T03:03:35.464Z,79.28
2018-04-16T03:04:35.513Z,79.66
2018-04-16T03:05:35.466Z,79.59
2018-04-16T03:06:35.442Z,79.63
2018-04-16T03:07:35.470Z,79.3
2018-04-16T03:08:35.436Z,79.13
2018-04-16T03:09:35.430Z,79.59
2018-04-16T03:10:35.439Z,79.19
2018-04-16T03:11:35.449Z,79.77
2018-04-16T03:12:35.574Z,79.19
2018-04-16T03:13:35.442Z,79.14
2018-04-16T03:14:35.467Z,79.59
2018-04-16T03:15:35.440Z,79.48
2018-04-16T03:16:35.437Z,79.59
2018-04-16T03:17:35.467Z,79.73
2018-04-16T03:18:35.438Z,79.7
2018-04-16T03:19:35.447Z,79.37
2018-04-16T03:20:35.428Z,79.23
2018-04-16T03:21:35.413Z,78.95
2018-04-16T03:22:35.439Z,79.01
2018-04-16T03:23:35.399Z,79.68
2018-04-16T03:24:35.435Z,79.86
2018-04-16T03:25:35.418Z,79.92
2018-04-16T03:26:35.406Z,79.42
2018-04-16T03:27:35.417Z,80.38
2018-04-16T03:28:35.412Z,79.86
2018-04-16T03:29:35.398Z,80.08
2018-04-16T03:30:35.423Z,79.85
2018-04-16T03:31:35.492Z,79.64
2018-04-16T03:32:35.505Z,79.3
2018-04-16T03:33:35.420Z,79.64
2018-04-16T03:34:35.398Z,79.71
2018-04-16T03:35:35.508Z,79.37
2018-04-16T03:36:35.419Z,79.18
2018-04-16T03:37:35.465Z,79.92
2018-04-16T03:38:35.391Z,80.94
2018-04-16T03:39:35.401Z,79.93
2018-04-16T03:40:35.398Z,80.47
2018-04-16T03:41:35.394Z,80.9
2018-04-16T03:42:35.423Z,80.37
2018-04-16T03:43:35.420Z,79.61
2018-04-16T03:44:35.559Z,79.62
2018-04-16T03:45:35.383Z,79.54
2018-04-16T03:46:35.397Z,79.74
2018-04-16T03:47:35.385Z,79.63
2018-04-16T03:48:35.373Z,79.56
2018-04-16T03:49:35.401Z,80.15
2018-04-16T03:50:35.423Z,79.57
2018-04-16T03:51:35.384Z,79.84
2018-04-16T03:52:35.382Z,80.38
2018-04-16T03:53:35.387Z,80.2
2018-04-16T03:54:35.362Z,80.08
2018-04-16T03:55:35.376Z,80.48
2018-04-16T03:56:35.375Z,80.35
2018-04-16T03:57:35.432Z,80.8
2018-04-16T03:58:35.382Z,80.77
2018-04-16T03:59:35.367Z,80.65
2018-04-16T04:00:35.362Z,80.25
2018-04-16T04:01:35.379Z,80.11
2018-04-16T04:02:35.344Z,80.07
2018-04-16T04:03:35.349Z,80.28
2018-04-16T04:04:35.357Z,80.38
2018-04-16T04:05:35.352Z,80.41
2018-04-16T04:06:35.355Z,80.71
2018-04-16T04:07:35.387Z,80.46
2018-04-16T04:08:35.333Z,80.76
2018-04-16T04:09:35.339Z,81.01
2018-04-16T04:10:35.356Z,80.99
2018-04-16T04:11:35.345Z,80.92
2018-04-16T04:12:35.353Z,80.29
2018-04-16T04:13:35.328Z,80.35
2018-04-16T04:14:35.344Z,80.89
2018-04-16T04:15:35.335Z,80.48
2018-04-16T04:16:35.336Z,80.5
2018-04-16T04:17:35.398Z,80.65
2018-04-16T04:18:35.372Z,80.7
2018-04-16T04:19:35.367Z,80.17
2018-04-16T04:20:35.381Z,80.1
2018-04-16T04:21:35.335Z,80.32
2018-04-16T04:22:35.337Z,80.52
2018-04-16T04:23:35.324Z,80.92
2018-04-16T04:24:35.312Z,80.5
2018-04-16T04:25:35.332Z,80.39
2018-04-16T04:27:35.349Z,81.03
2018-04-16T04:28:35.321Z,80.59
2018-04-16T04:29:35.308Z,80.64
2018-04-16T04:30:35.317Z,80.48
2018-04-16T04:31:35.303Z,80.7
2018-04-16T04:32:35.310Z,80.48
2018-04-16T04:33:35.331Z,80.41
2018-04-16T04:34:35.342Z,80.29
2018-04-16T04:35:35.322Z,80.65
2018-04-16T04:36:35.318Z,80.54
2018-04-16T04:37:35.426Z,80.94
2018-04-16T04:38:35.371Z,81.01
2018-04-16T04:39:35.301Z,80.19
2018-04-16T04:40:35.343Z,81.52
2018-04-16T04:41:35.292Z,80.68
2018-04-16T04:42:35.287Z,80.72
2018-04-16T04:43:35.438Z,80.61
2018-04-16T04:44:35.306Z,81.38
2018-04-16T04:45:35.365Z,81.07
2018-04-16T04:46:35.284Z,81.03
2018-04-16T04:47:35.291Z,81.4
2018-04-16T04:48:35.495Z,82.29
2018-04-16T04:49:35.295Z,81.37
2018-04-16T04:50:35.291Z,81.56
2018-04-16T04:51:35.297Z,81.49
2018-04-16T04:52:35.304Z,80.98
2018-04-16T04:53:35.310Z,81.29
2018-04-16T04:54:35.309Z,81.41
2018-04-16T04:55:35.331Z,81.64
2018-04-16T04:56:35.266Z,80.9
2018-04-16T04:57:35.294Z,83.04
2018-04-16T04:58:35.299Z,82.4
2018-04-16T04:59:35.275Z,82.54
2018-04-16T05:00:35.282Z,83.25
2018-04-16T05:01:35.290Z,82.3
2018-04-16T05:02:35.281Z,82.59
2018-04-16T05:03:35.327Z,82.31
2018-04-16T05:04:35.265Z,82.11
2018-04-16T05:05:35.260Z,82.89
2018-04-16T05:06:35.311Z,83.24
2018-04-16T05:07:35.255Z,83.19
2018-04-16T05:08:35.292Z,82.17
2018-04-16T05:09:35.277Z,82.84
2018-04-16T05:10:35.277Z,82.36
2018-04-16T05:11:35.257Z,81.82
2018-04-16T05:12:35.288Z,82.07
2018-04-16T05:13:35.295Z,81.95
2018-04-16T05:14:35.274Z,82.01
2018-04-16T05:15:35.256Z,82.01
2018-04-16T05:16:35.253Z,81.96
2018-04-16T05:17:35.261Z,82.63
2018-04-16T05:18:35.260Z,81.56
2018-04-16T05:19:35.289Z,82.48
2018-04-16T05:20:35.247Z,82.74
2018-04-16T05:21:35.241Z,82.53
2018-04-16T05:22:35.232Z,82.58
2018-04-16T05:23:35.325Z,82.01
2018-04-16T05:24:35.245Z,82.11
2018-04-16T05:25:35.265Z,81.61
2018-04-16T05:26:35.224Z,81.78
2018-04-16T05:27:35.233Z,81.64
2018-04-16T05:28:35.354Z,81.45
2018-04-16T05:29:35.232Z,82.18
2018-04-16T05:30:35.236Z,81.96
2018-04-16T05:31:35.233Z,81.81
2018-04-16T05:32:35.305Z,81.74
2018-04-16T05:33:35.399Z,82.12
2018-04-16T05:34:35.391Z,82.13
2018-04-16T05:35:35.225Z,81.85
2018-04-16T05:36:35.349Z,81.57
2018-04-16T05:37:35.212Z,81.98
2018-04-16T05:38:35.271Z,81.42
2018-04-16T05:39:35.301Z,81.78
2018-04-16T05:40:35.211Z,82.42
2018-04-16T05:41:35.207Z,81.84
2018-04-16T05:42:35.207Z,81.81
2018-04-16T05:43:35.203Z,82.15
2018-04-16T05:44:35.241Z,82.04
2018-04-16T05:45:35.222Z,82.03
2018-04-16T05:46:35.201Z,82.85
2018-04-16T05:47:35.232Z,82.91
2018-04-16T05:48:35.195Z,82.66
2018-04-16T05:49:35.242Z,82.28
2018-04-16T05:50:35.202Z,81.68
2018-04-16T05:51:35.203Z,82.3
2018-04-16T05:52:35.193Z,82.11
2018-04-16T05:53:35.188Z,82.18
2018-04-16T05:54:35.224Z,82.82
2018-04-16T05:55:35.195Z,82.35
2018-04-16T05:56:35.196Z,82.57
2018-04-16T05:57:35.183Z,82.46
2018-04-16T05:58:35.223Z,82.51
2018-04-16T05:59:35.237Z,82.56
2018-04-16T06:00:35.205Z,83.11
2018-04-16T06:01:35.172Z,83.01
2018-04-16T06:02:35.244Z,83.2
2018-04-16T06:03:35.181Z,84.12
2018-04-16T06:04:35.209Z,84.05
2018-04-16T06:05:35.183Z,84.11
2018-04-16T06:06:35.204Z,83.82
2018-04-16T06:07:35.201Z,84.16
2018-04-16T06:08:35.181Z,83.69
2018-04-16T06:09:35.316Z,84.06
2018-04-16T06:10:35.205Z,83.94
2018-04-16T06:11:35.304Z,83.39
2018-04-16T06:12:35.177Z,84.21
2018-04-16T06:13:35.208Z,85.27
2018-04-16T06:14:35.209Z,84.89
2018-04-16T06:15:35.177Z,84.87
2018-04-16T06:16:35.204Z,85.25
2018-04-16T06:17:35.195Z,84.89
2018-04-16T06:18:35.183Z,84.84
2018-04-16T06:19:35.151Z,84.67
2018-04-16T06:20:35.323Z,84.87
2018-04-16T06:21:35.171Z,85.12
2018-04-16T06:22:35.187Z,84.86
2018-04-16T06:23:35.172Z,84.41
2018-04-16T06:24:35.149Z,84.48
2018-04-16T06:25:35.179Z,84.86
2018-04-16T06:26:35.143Z,84.81
2018-04-16T06:27:35.143Z,84.83
2018-04-16T06:28:35.175Z,85.62
2018-04-16T06:29:35.129Z,85.37
2018-04-16T06:30:35.217Z,85
2018-04-16T06:31:35.124Z,85.15
2018-04-16T06:32:35.159Z,85.29
2018-04-16T06:33:35.174Z,84.98
2018-04-16T06:34:35.159Z,85.16
2018-04-16T06:35:35.393Z,85.04
2018-04-16T06:36:35.153Z,84.73
2018-04-16T06:37:35.161Z,84.98
2018-04-16T06:38:35.141Z,85.02
2018-04-16T06:39:35.133Z,85.39
2018-04-16T06:40:35.167Z,85.2
2018-04-16T06:41:35.161Z,85.09
2018-04-16T06:42:35.147Z,84.61
2018-04-16T06:43:35.153Z,84.64
2018-04-16T06:44:35.167Z,84.98
2018-04-16T06:45:35.204Z,84.62
2018-04-16T06:46:35.140Z,84.94
2018-04-16T06:47:35.108Z,84.97
2018-04-16T06:48:35.116Z,84.63
2018-04-16T06:49:35.107Z,84.29
2018-04-16T06:50:35.159Z,84.77
2018-04-16T06:51:35.107Z,84.59
2018-04-16T06:52:35.123Z,84.18
2018-04-16T06:53:35.123Z,83.8
2018-04-16T06:54:35.132Z,84.13
2018-04-16T06:55:35.125Z,83.99
2018-04-16T06:56:35.130Z,83.85
2018-04-16T06:57:35.102Z,84.01
2018-04-16T06:58:35.138Z,84.24
2018-04-16T06:59:35.108Z,84.37
2018-04-16T07:00:35.141Z,83.88
2018-04-16T07:01:35.096Z,83.63
2018-04-16T07:02:35.104Z,83.5
2018-04-16T07:03:35.089Z,83.31
2018-04-16T07:04:35.083Z,83.49
2018-04-16T07:05:35.126Z,83.53
2018-04-16T07:06:35.085Z,83.15
2018-04-16T07:07:35.082Z,83.17
2018-04-16T07:08:35.083Z,82.87
2018-04-16T07:09:35.080Z,82.7
2018-04-16T07:10:35.134Z,82.69
2018-04-16T07:11:35.165Z,82.25
2018-04-16T07:12:35.085Z,82.75
2018-04-16T07:13:35.074Z,82.61
2018-04-16T07:14:35.100Z,82.12
2018-04-16T07:15:35.077Z,82.28
2018-04-16T07:16:35.076Z,81.88
2018-04-16T07:17:35.100Z,81.49
2018-04-16T07:18:35.064Z,81.18
2018-04-16T07:19:35.095Z,81.47
2018-04-16T07:20:35.081Z,80.78
2018-04-16T07:21:35.230Z,80.51
2018-04-16T07:22:35.061Z,80.33
2018-04-16T07:23:35.064Z,80.82
2018-04-16T07:24:35.063Z,79.66
2018-04-16T07:25:35.070Z,79.17
2018-04-16T07:26:35.146Z,79.7
2018-04-16T07:27:35.086Z,79.93
2018-04-16T07:28:35.046Z,80.84
2018-04-16T07:29:35.052Z,80.36
2018-04-16T07:30:35.106Z,80.2
2018-04-16T07:31:35.042Z,80.12
2018-04-16T07:32:35.043Z,80.03
2018-04-16T07:33:35.084Z,79.72
2018-04-16T07:34:35.161Z,79.18
2018-04-16T07:35:35.119Z,78.67
2018-04-16T07:36:35.048Z,79.19
2018-04-16T07:37:35.157Z,78.99
2018-04-16T07:38:35.078Z,79.14
2018-04-16T07:39:35.057Z,79.55
2018-04-16T07:40:35.043Z,79.28
2018-04-16T07:41:35.022Z,78.49
2018-04-16T07:42:35.067Z,78.79
2018-04-16T07:43:35.031Z,77.84
2018-04-16T07:44:35.047Z,78
2018-04-16T07:45:35.161Z,78.94
2018-04-16T07:46:35.036Z,78.32
2018-04-16T07:47:35.026Z,78.7
2018-04-16T07:48:35.017Z,77.46
2018-04-16T07:49:35.021Z,77.59
2018-04-16T07:50:35.044Z,77.14
2018-04-16T07:51:35.022Z,77.22
2018-04-16T07:52:35.042Z,77.71
2018-04-16T07:53:35.012Z,77.62
2018-04-16T07:54:35.017Z,77.08
2018-04-16T07:55:35.181Z,76.89
2018-04-16T07:56:35.053Z,77.17
2018-04-16T07:57:35.054Z,76.12
2018-04-16T07:58:35.033Z,76
2018-04-16T07:59:35.022Z,76.16
2018-04-16T08:00:35.025Z,76.69
2018-04-16T08:01:35.003Z,77.12
2018-04-16T08:02:35.019Z,76.89
2018-04-16T08:03:34.995Z,76.37
2018-04-16T08:04:35.014Z,75.71
2018-04-16T08:05:35.014Z,75.09
2018-04-16T08:06:35.009Z,74.33
2018-04-16T08:07:35.014Z,73.08
2018-04-16T08:08:35.009Z,73.18
2018-04-16T08:09:35.004Z,74.08
2018-04-16T08:10:35.014Z,72.78
2018-04-16T08:11:34.981Z,72.86
2018-04-16T08:12:35.046Z,73.4
2018-04-16T08:13:34.986Z,73.59
2018-04-16T08:14:34.994Z,73.82
2018-04-16T08:15:35.001Z,72.64
2018-04-16T08:16:35.166Z,72.49
2018-04-16T08:17:35.046Z,71.35
2018-04-16T08:18:35.008Z,70.22
2018-04-16T08:19:34.993Z,70.64
2018-04-16T08:20:34.983Z,70.53
2018-04-16T08:21:35.007Z,71.08
2018-04-16T08:22:34.998Z,71.29
2018-04-16T08:23:35.009Z,71.1
2018-04-16T08:24:34.986Z,70.84
2018-04-16T08:25:34.994Z,70.83
2018-04-16T08:26:34.977Z,68.83
2018-04-16T08:27:35.156Z,66.1
2018-04-16T08:28:35.021Z,67.45
2018-04-16T08:29:34.984Z,68.89
2018-04-16T08:30:35.108Z,69.39
2018-04-16T08:31:34.973Z,69.57
2018-04-16T08:32:35.001Z,68.78
2018-04-16T08:33:34.963Z,69.48
2018-04-16T08:34:34.963Z,66.67
2018-04-16T08:35:34.974Z,64.38
2018-04-16T08:36:34.971Z,62.87
2018-04-16T08:37:35.065Z,62.29
2018-04-16T08:38:35.010Z,62.78
2018-04-16T08:39:34.992Z,64.84
2018-04-16T08:40:34.995Z,65.44
2018-04-16T08:41:34.981Z,63.76
2018-04-16T08:42:35.030Z,63.56
2018-04-16T08:43:34.943Z,61.53
2018-04-16T08:44:34.968Z,60.29
2018-04-16T08:45:34.990Z,61.04
2018-04-16T08:46:35.003Z,61.97
2018-04-16T08:47:34.973Z,62.14
2018-04-16T08:48:34.952Z,61.16
2018-04-16T08:49:34.979Z,62.18
2018-04-16T08:50:34.945Z,61.76
2018-04-16T08:51:34.951Z,63.13
2018-04-16T08:52:35.005Z,63.46
2018-04-16T08:53:34.942Z,62.67
2018-04-16T08:54:34.931Z,60.74
2018-04-16T08:55:34.940Z,61.86
2018-04-16T08:56:34.913Z,62.19
2018-04-16T08:57:35.116Z,62.78
2018-04-16T08:58:34.910Z,60.86
2018-04-16T08:59:34.988Z,60.53
2018-04-16T09:00:35.011Z,60.56
2018-04-16T09:01:34.920Z,60.54
2018-04-16T09:02:34.971Z,58.56
2018-04-16T09:03:34.939Z,57.87
2018-04-16T09:04:34.911Z,56.65
2018-04-16T09:05:34.912Z,56.95
2018-04-16T09:06:34.915Z,55.78
2018-04-16T09:07:34.937Z,54.94
2018-04-16T09:08:34.940Z,54.66
2018-04-16T09:09:34.895Z,55.09
2018-04-16T09:10:34.911Z,53.39
2018-04-16T09:11:34.909Z,54.08
2018-04-16T09:12:34.920Z,53.97
2018-04-16T09:13:34.909Z,53.97
2018-04-16T09:14:34.894Z,55.04
2018-04-16T09:15:34.904Z,55.52
2018-04-16T09:16:34.899Z,54.26
2018-04-16T09:17:35.007Z,54.3
2018-04-16T09:18:34.903Z,53.46
2018-04-16T09:19:35.014Z,53.59
2018-04-16T09:20:35.019Z,54.09
2018-04-16T09:21:34.889Z,53.97
2018-04-16T09:22:34.940Z,53.77
2018-04-16T09:23:34.901Z,54.65
2018-04-16T09:24:34.884Z,53.88
2018-04-16T09:25:34.893Z,52.79
2018-04-16T09:26:34.923Z,51.49
2018-04-16T09:27:34.957Z,51.82
2018-04-16T09:28:34.933Z,52.27
2018-04-16T09:29:34.930Z,50.69
2018-04-16T09:30:34.886Z,51.07
2018-04-16T09:31:34.899Z,50.94
2018-04-16T09:32:34.932Z,51.19
2018-04-16T09:33:34.910Z,50.3
2018-04-16T09:34:34.974Z,50.49
2018-04-16T09:35:34.926Z,51.06
2018-04-16T09:36:34.991Z,52.9
2018-04-16T09:37:35.102Z,52.76
2018-04-16T09:38:35.002Z,53.54
2018-04-16T09:39:34.947Z,52.39
2018-04-16T09:40:34.915Z,53.78
2018-04-16T09:41:34.852Z,54.19
2018-04-16T09:42:35.032Z,54.28
2018-04-16T09:43:35.143Z,53.56
2018-04-16T09:44:34.943Z,52.52
2018-04-16T09:45:34.992Z,51.71
2018-04-16T09:46:34.954Z,51.59
2018-04-16T09:47:34.866Z,51.27
2018-04-16T09:48:34.887Z,52.55
2018-04-16T09:49:34.853Z,51.5
2018-04-16T09:50:34.945Z,50.57
2018-04-16T09:51:34.860Z,51.3
2018-04-16T09:52:34.839Z,52.38
2018-04-16T09:53:34.900Z,52
2018-04-16T09:54:34.869Z,52.73
2018-04-16T09:55:35.022Z,52.15
2018-04-16T09:56:35.025Z,51.19
2018-04-16T09:57:35.036Z,51.16
2018-04-16T09:58:34.862Z,52
2018-04-16T09:59:34.942Z,49.25
2018-04-16T10:00:34.959Z,49
2018-04-16T10:01:34.955Z,48.45
2018-04-16T10:02:34.859Z,48.81
2018-04-16T10:03:34.866Z,48.65
2018-04-16T10:04:34.823Z,47.76
2018-04-16T10:05:34.819Z,48.14
2018-04-16T10:06:34.820Z,47.95
2018-04-16T10:07:34.820Z,48.47
2018-04-16T10:08:34.908Z,47.75
2018-04-16T10:09:34.824Z,47.6
2018-04-16T10:10:34.842Z,49.25
2018-04-16T10:11:34.811Z,49.59
2018-04-16T10:12:34.929Z,49.7
2018-04-16T10:13:34.852Z,48.51
2018-04-16T10:14:34.823Z,48.69
2018-04-16T10:15:34.820Z,48.66
2018-04-16T10:16:34.887Z,47.97
2018-04-16T10:17:34.809Z,48.01
2018-04-16T10:18:34.828Z,47.42
2018-04-16T10:19:34.826Z,47.39
2018-04-16T10:20:34.816Z,45.98
2018-04-16T10:21:34.823Z,45.75
2018-04-16T10:22:34.886Z,46.35
2018-04-16T10:23:34.864Z,45.95
2018-04-16T10:24:34.821Z,46.28
2018-04-16T10:25:34.813Z,44.42
2018-04-16T10:26:34.964Z,46.1
2018-04-16T10:27:35.038Z,44.98
2018-04-16T10:28:34.960Z,45.32
2018-04-16T10:29:34.859Z,46.21
2018-04-16T10:30:34.798Z,46.7
2018-04-16T10:31:34.824Z,45.27
2018-04-16T10:32:34.863Z,43.96
2018-04-16T10:33:34.994Z,43.98
2018-04-16T10:34:34.866Z,43.96
2018-04-16T10:35:34.834Z,43.69
2018-04-16T10:36:34.804Z,43.23
2018-04-16T10:37:34.799Z,43.76
2018-04-16T10:38:34.820Z,43.51
2018-04-16T10:39:34.980Z,44.61
2018-04-16T10:40:34.798Z,45.02
2018-04-16T10:41:34.802Z,45.08
2018-04-16T10:42:34.813Z,45.81
2018-04-16T10:43:34.925Z,46.17
2018-04-16T10:44:34.852Z,46.62
2018-04-16T10:45:34.779Z,43.73
2018-04-16T10:46:34.839Z,44.3
2018-04-16T10:47:34.985Z,43.77
2018-04-16T10:48:34.797Z,43.23
2018-04-16T10:49:34.794Z,42.42
2018-04-16T10:50:34.795Z,42.74
2018-04-16T10:51:34.849Z,43.23
2018-04-16T10:52:34.763Z,43.53
2018-04-16T10:53:34.775Z,43.27
2018-04-16T10:54:34.817Z,38.71
2018-04-16T10:55:34.824Z,39.49
2018-04-16T10:56:34.764Z,39.65
2018-04-16T10:57:34.928Z,41.75
2018-04-16T10:58:34.881Z,42.5
2018-04-16T10:59:34.771Z,41.74
2018-04-16T11:00:34.798Z,41.5
2018-04-16T11:01:34.919Z,41.64
2018-04-16T11:02:34.804Z,41.97
2018-04-16T11:03:34.758Z,42.22
2018-04-16T11:04:34.936Z,42.29
2018-04-16T11:05:34.758Z,39.4
2018-04-16T11:06:34.750Z,39.67
2018-04-16T11:07:34.769Z,40.3
2018-04-16T11:08:34.929Z,41.57
2018-04-16T11:09:34.763Z,41.3
2018-04-16T11:10:34.789Z,41.06
2018-04-16T11:11:34.750Z,40.47
2018-04-16T11:12:34.761Z,40.86
2018-04-16T11:13:34.740Z,40.68
2018-04-16T11:14:34.769Z,40.92
2018-04-16T11:15:34.764Z,40.08
2018-04-16T11:16:34.750Z,39.18
2018-04-16T11:17:34.739Z,40.72
2018-04-16T11:18:34.807Z,40.99
2018-04-16T11:19:34.759Z,39.48
2018-04-16T11:20:34.751Z,38.67
2018-04-16T11:21:34.757Z,38.56
2018-04-16T11:22:34.751Z,37.41
2018-04-16T11:23:34.744Z,37.61
2018-04-16T11:24:34.793Z,38.79
2018-04-16T11:25:34.748Z,38.74
2018-04-16T11:26:34.729Z,39.74
2018-04-16T11:27:34.735Z,39.95
2018-04-16T11:28:34.943Z,40.63
2018-04-16T11:29:34.760Z,39.44
2018-04-16T11:30:34.750Z,41.21
2018-04-16T11:31:34.729Z,40.92
2018-04-16T11:32:34.737Z,40.53
2018-04-16T11:33:34.774Z,41.19
2018-04-16T11:34:34.769Z,40.46
2018-04-16T11:35:34.842Z,40.93
2018-04-16T11:36:34.748Z,41.16
2018-04-16T11:37:34.694Z,40.28
2018-04-16T11:38:34.698Z,40.5
2018-04-16T11:39:34.813Z,40.39
2018-04-16T11:40:34.705Z,40.24
2018-04-16T11:41:34.929Z,40.45
2018-04-16T11:42:34.697Z,40.61
2018-04-16T11:43:34.739Z,40.97
2018-04-16T11:44:34.695Z,40.96
2018-04-16T11:45:34.734Z,40.78
2018-04-16T11:46:34.708Z,40.66
2018-04-16T11:47:34.695Z,40.64
2018-04-16T11:48:35.249Z,39.67
2018-04-16T11:49:34.831Z,40.7
2018-04-16T11:50:34.789Z,40.07
2018-04-16T11:51:34.700Z,40.33
2018-04-16T11:52:34.702Z,40.51
2018-04-16T11:53:34.685Z,40.54
2018-04-16T11:54:34.732Z,40.17
2018-04-16T11:55:34.704Z,39.88
2018-04-16T11:56:34.669Z,39.89
2018-04-16T11:57:34.724Z,40.61
2018-04-16T11:58:34.689Z,41.8
2018-04-16T11:59:34.665Z,41.51
2018-04-16T12:00:34.692Z,41.02
2018-04-16T12:01:34.685Z,41.1
2018-04-16T12:02:34.673Z,41.38
2018-04-16T12:03:34.665Z,41.6
2018-04-16T12:04:34.712Z,41.53
2018-04-16T12:05:34.696Z,40.96
2018-04-16T12:06:34.835Z,41.82
2018-04-16T12:07:34.645Z,41.44
2018-04-16T12:08:34.786Z,40.99
2018-04-16T12:09:34.718Z,41.64
2018-04-16T12:10:34.698Z,41.05
2018-04-16T12:11:34.711Z,41.38
2018-04-16T12:12:34.687Z,41.16
2018-04-16T12:13:34.647Z,41.65
2018-04-16T12:14:34.651Z,41.88
2018-04-16T12:15:34.640Z,41.28
2018-04-16T12:16:34.703Z,42.34
2018-04-16T12:17:34.643Z,42.03
2018-04-16T12:18:34.641Z,42.06
2018-04-16T12:19:34.657Z,42.03
2018-04-16T12:20:34.669Z,41.64
2018-04-16T12:21:34.658Z,42.57
2018-04-16T12:22:34.642Z,41.86
2018-04-16T12:23:34.633Z,41.29
2018-04-16T12:24:34.649Z,41.16
2018-04-16T12:25:34.672Z,41.47
2018-04-16T12:26:34.649Z,42.09
2018-04-16T12:27:34.644Z,42.13
2018-04-16T12:28:34.638Z,41.94
2018-04-16T12:29:34.762Z,42.07
2018-04-16T12:30:34.676Z,42.27
2018-04-16T12:31:34.675Z,41.68
2018-04-16T12:32:34.614Z,41.58
2018-04-16T12:33:34.637Z,42.78
2018-04-16T12:34:34.662Z,42.36
2018-04-16T12:35:34.648Z,42.6
2018-04-16T12:36:34.652Z,41.74
2018-04-16T12:37:34.650Z,41.14
2018-04-16T12:38:34.630Z,41.34
2018-04-16T12:39:34.635Z,41.12
2018-04-16T12:40:34.688Z,42.01
2018-04-16T12:41:34.875Z,42.67
2018-04-16T12:42:34.830Z,42.56
2018-04-16T12:43:34.621Z,41.77
2018-04-16T12:44:34.636Z,42.08
2018-04-16T12:45:34.686Z,42.51
2018-04-16T12:46:34.618Z,41.41
2018-04-16T12:47:34.796Z,41.08
2018-04-16T12:48:34.620Z,41.13
2018-04-16T12:49:34.685Z,41.61
2018-04-16T12:50:34.596Z,41.03
2018-04-16T12:51:34.594Z,42.18
2018-04-16T12:52:34.592Z,41.9
2018-04-16T12:53:34.707Z,42.24
2018-04-16T12:54:34.619Z,42.37
2018-04-16T12:55:34.603Z,42.71
2018-04-16T12:56:34.653Z,43.62
2018-04-16T12:57:34.725Z,43.15
2018-04-16T12:58:34.640Z,42.97